createdAt,value
2017-12-25T00:02:09.928Z,78.86
2017-12-25T00:04:37.484Z,78.86
2017-12-25T00:07:05.164Z,78.87
2017-12-25T00:09:32.790Z,78.97
2017-12-25T00:12:00.372Z,79.12
2017-12-25T00:14:28.013Z,78.84
2017-12-25T00:16:55.537Z,79.13
2017-12-25T00:19:23.080Z,78.82
2017-12-25T00:21:50.600Z,79.34
2017-12-25T00:24:18.118Z,79.32
2017-12-25T00:26:45.688Z,78.97
2017-12-25T00:29:13.257Z,79.18
2017-12-25T00:31:40.933Z,78.96
2017-12-25T00:34:08.818Z,78.97
2017-12-25T00:36:36.462Z,78.93
2017-12-25T00:39:03.994Z,78.97
2017-12-25T00:41:31.537Z,78.87
2017-12-25T00:43:59.137Z,78.92
2017-12-25T00:46:26.653Z,79.17
2017-12-25T00:48:54.725Z,78.88
2017-12-25T00:51:22.254Z,78.93
2017-12-25T00:53:49.893Z,79.11
2017-12-25T00:56:17.414Z,78.94
2017-12-25T00:58:44.973Z,78.58
2017-12-25T01:01:12.502Z,79.18
2017-12-25T01:03:40.135Z,78.77
2017-12-25T01:06:07.695Z,78.60
2017-12-25T01:08:35.241Z,78.86
2017-12-25T01:11:02.757Z,78.51
2017-12-25T01:13:30.274Z,78.82
2017-12-25T01:15:57.785Z,78.76
2017-12-25T01:18:25.394Z,78.59
2017-12-25T01:20:52.951Z,78.24
2017-12-25T01:23:20.465Z,78.39
2017-12-25T01:25:51.826Z,78.53
2017-12-25T01:28:19.869Z,78.34
2017-12-25T01:30:47.385Z,78.22
2017-12-25T01:33:14.900Z,78.09
2017-12-25T01:35:42.509Z,78.16
2017-12-25T01:38:10.033Z,78.51
2017-12-25T01:40:37.556Z,77.96
2017-12-25T01:43:05.086Z,78.10
2017-12-25T01:45:32.598Z,78.25
2017-12-25T01:48:00.116Z,78.36
2017-12-25T01:50:28.439Z,78.28
2017-12-25T01:52:55.953Z,77.55
2017-12-25T01:55:24.368Z,77.75
2017-12-25T01:57:58.457Z,78.32
2017-12-25T02:00:32.552Z,77.80
2017-12-25T02:03:00.066Z,77.99
2017-12-25T02:05:30.383Z,77.73
2017-12-25T02:08:05.730Z,77.47
2017-12-25T02:10:33.254Z,77.73
2017-12-25T02:13:00.777Z,77.51
2017-12-25T02:15:28.288Z,77.53
2017-12-25T02:17:55.832Z,77.52
2017-12-25T02:20:23.345Z,77.09
2017-12-25T02:22:50.864Z,77.35
2017-12-25T02:25:18.414Z,76.68
2017-12-25T02:27:45.934Z,77.10
2017-12-25T02:30:13.449Z,76.50
2017-12-25T02:32:40.956Z,76.75
2017-12-25T02:35:08.477Z,76.88
2017-12-25T02:37:35.994Z,77.02
2017-12-25T02:40:03.515Z,77.13
2017-12-25T02:42:31.042Z,77.13
2017-12-25T02:44:58.555Z,76.47
2017-12-25T02:47:26.082Z,76.56
2017-12-25T02:49:53.619Z,76.57
2017-12-25T02:52:21.140Z,76.98
2017-12-25T02:54:48.656Z,76.75
2017-12-25T02:57:16.176Z,76.24
2017-12-25T02:59:43.685Z,76.93
2017-12-25T03:02:11.195Z,76.34
2017-12-25T03:04:38.703Z,76.82
2017-12-25T03:07:06.227Z,76.15
2017-12-25T03:09:33.747Z,76.14
2017-12-25T03:12:01.272Z,76.19
2017-12-25T03:14:28.787Z,76.25
2017-12-25T03:16:56.300Z,76.06
2017-12-25T03:19:23.812Z,76.48
2017-12-25T03:21:51.319Z,76.39
2017-12-25T03:24:18.828Z,76.17
2017-12-25T03:26:46.332Z,76.48
2017-12-25T03:29:13.839Z,76.34
2017-12-25T03:31:41.351Z,76.44
2017-12-25T03:34:08.864Z,76.26
2017-12-25T03:36:36.368Z,76.48
2017-12-25T03:39:03.886Z,76.23
2017-12-25T03:41:31.421Z,76.47
2017-12-25T03:43:58.937Z,75.81
2017-12-25T03:46:26.449Z,75.70
2017-12-25T03:48:53.961Z,75.26
2017-12-25T03:51:21.472Z,75.34
2017-12-25T03:53:48.968Z,74.85
2017-12-25T03:56:16.494Z,75.32
2017-12-25T03:58:44.016Z,75.73
2017-12-25T04:01:11.529Z,75.55
2017-12-25T04:03:39.034Z,75.05
2017-12-25T04:06:06.544Z,74.72
2017-12-25T04:08:34.082Z,74.90
2017-12-25T04:11:01.595Z,75.14
2017-12-25T04:13:29.108Z,75.18
2017-12-25T04:15:56.649Z,75.46
2017-12-25T04:18:24.157Z,74.70
2017-12-25T04:20:51.669Z,74.97
2017-12-25T04:23:19.193Z,74.84
2017-12-25T04:25:46.701Z,74.57
2017-12-25T04:28:14.209Z,74.33
2017-12-25T04:30:41.718Z,75.15
2017-12-25T04:33:09.229Z,75.65
2017-12-25T04:35:36.765Z,75.59
2017-12-25T04:38:04.277Z,75.67
2017-12-25T04:40:31.795Z,76.07
2017-12-25T04:42:59.312Z,76.09
2017-12-25T04:45:26.838Z,76.95
2017-12-25T04:47:54.351Z,77.11
2017-12-25T04:50:21.894Z,77.59
2017-12-25T04:52:49.405Z,77.98
2017-12-25T04:55:16.908Z,78.33
2017-12-25T04:57:44.413Z,78.50
2017-12-25T05:00:11.912Z,78.31
2017-12-25T05:02:39.421Z,78.37
2017-12-25T05:05:06.936Z,78.51
2017-12-25T05:07:34.448Z,78.79
2017-12-25T05:10:01.967Z,78.84
2017-12-25T05:12:29.474Z,79.09
2017-12-25T05:14:56.977Z,79.09
2017-12-25T05:17:24.489Z,78.87
2017-12-25T05:19:51.993Z,79.07
2017-12-25T05:22:19.525Z,79.01
2017-12-25T05:24:47.057Z,79.48
2017-12-25T05:27:14.575Z,79.61
2017-12-25T05:29:42.082Z,79.87
2017-12-25T05:32:09.601Z,80.07
2017-12-25T05:34:37.112Z,80.17
2017-12-25T05:37:04.616Z,80.32
2017-12-25T05:39:32.116Z,80.54
2017-12-25T05:41:59.629Z,80.48
2017-12-25T05:44:27.133Z,80.77
2017-12-25T05:46:54.649Z,81.09
2017-12-25T05:49:22.166Z,81.52
2017-12-25T05:51:49.665Z,81.00
2017-12-25T05:54:17.172Z,80.82
2017-12-25T05:56:44.690Z,80.99
2017-12-25T05:59:12.202Z,81.06
2017-12-25T06:01:39.709Z,80.80
2017-12-25T06:04:07.221Z,80.75
2017-12-25T06:06:34.721Z,80.45
2017-12-25T06:09:02.220Z,80.58
2017-12-25T06:11:29.730Z,80.62
2017-12-25T06:13:57.228Z,80.49
2017-12-25T06:16:24.747Z,80.10
2017-12-25T06:18:52.249Z,80.24
2017-12-25T06:21:19.752Z,80.08
2017-12-25T06:23:47.260Z,79.69
2017-12-25T06:26:14.777Z,79.46
2017-12-25T06:28:42.313Z,79.45
2017-12-25T06:31:09.822Z,79.67
2017-12-25T06:33:37.326Z,79.25
2017-12-25T06:36:04.850Z,79.20
2017-12-25T06:38:32.361Z,79.36
2017-12-25T06:40:59.869Z,79.27
2017-12-25T06:43:27.381Z,79.24
2017-12-25T06:45:54.889Z,79.33
2017-12-25T06:48:22.396Z,79.05
2017-12-25T06:50:49.913Z,79.06
2017-12-25T06:53:17.417Z,79.53
2017-12-25T06:55:44.938Z,79.00
2017-12-25T06:58:12.452Z,78.90
2017-12-25T07:00:39.957Z,78.76
2017-12-25T07:03:07.474Z,78.37
2017-12-25T07:05:34.992Z,78.39
2017-12-25T07:08:02.498Z,78.60
2017-12-25T07:10:29.993Z,78.75
2017-12-25T07:12:57.517Z,78.41
2017-12-25T07:15:25.034Z,78.06
2017-12-25T07:17:52.536Z,78.33
2017-12-25T07:20:20.050Z,78.33
2017-12-25T07:22:47.556Z,78.35
2017-12-25T07:25:15.072Z,78.24
2017-12-25T07:27:42.577Z,77.59
2017-12-25T07:30:10.076Z,77.80
2017-12-25T07:32:37.578Z,78.24
2017-12-25T07:35:05.085Z,77.74
2017-12-25T07:37:32.594Z,78.08
2017-12-25T07:40:00.102Z,77.39
2017-12-25T07:42:27.613Z,78.06
2017-12-25T07:44:55.117Z,77.92
2017-12-25T07:47:22.632Z,77.99
2017-12-25T07:49:50.136Z,77.72
2017-12-25T07:52:17.635Z,77.21
2017-12-25T07:54:45.150Z,77.46
2017-12-25T07:57:12.654Z,77.13
2017-12-25T07:59:40.162Z,76.86
2017-12-25T08:02:07.672Z,76.57
2017-12-25T08:04:35.173Z,77.61
2017-12-25T08:07:02.682Z,76.92
2017-12-25T08:09:30.190Z,77.06
2017-12-25T08:11:57.712Z,76.23
2017-12-25T08:14:25.229Z,75.96
2017-12-25T08:16:52.740Z,76.21
2017-12-25T08:19:20.244Z,76.06
2017-12-25T08:21:47.757Z,75.96
2017-12-25T08:24:15.274Z,75.90
2017-12-25T08:26:42.781Z,75.22
2017-12-25T08:29:10.296Z,75.25
2017-12-25T08:31:37.830Z,75.21
2017-12-25T08:34:05.341Z,74.95
2017-12-25T08:36:32.852Z,74.71
2017-12-25T08:39:00.368Z,74.79
2017-12-25T08:41:27.872Z,74.13
2017-12-25T08:43:55.395Z,74.12
2017-12-25T08:46:22.916Z,74.67
2017-12-25T08:48:50.442Z,73.97
2017-12-25T08:51:17.965Z,74.42
2017-12-25T08:53:45.487Z,73.91
2017-12-25T08:56:12.999Z,74.16
2017-12-25T08:58:40.504Z,74.19
2017-12-25T09:01:08.020Z,73.23
2017-12-25T09:03:35.520Z,74.06
2017-12-25T09:06:03.025Z,73.22
2017-12-25T09:08:30.537Z,72.64
2017-12-25T09:10:58.042Z,73.06
2017-12-25T09:13:25.566Z,72.95
2017-12-25T09:15:53.080Z,71.86
2017-12-25T09:18:20.593Z,72.21
2017-12-25T09:20:48.106Z,71.46
2017-12-25T09:23:15.617Z,72.00
2017-12-25T09:25:43.125Z,70.85
2017-12-25T09:28:10.645Z,71.07
2017-12-25T09:30:38.158Z,71.51
2017-12-25T09:33:05.673Z,71.41
2017-12-25T09:35:33.195Z,71.18
2017-12-25T09:38:00.709Z,71.51
2017-12-25T09:40:28.230Z,70.72
2017-12-25T09:42:55.735Z,70.71
2017-12-25T09:45:23.253Z,70.68
2017-12-25T09:47:50.756Z,70.84
2017-12-25T09:50:18.261Z,70.63
2017-12-25T09:52:45.760Z,71.10
2017-12-25T09:55:13.269Z,71.38
2017-12-25T09:57:40.787Z,71.79
2017-12-25T10:00:08.313Z,72.37
2017-12-25T10:02:35.821Z,72.61
2017-12-25T10:05:03.409Z,73.17
2017-12-25T10:07:30.925Z,73.25
2017-12-25T10:09:58.425Z,73.43
2017-12-25T10:12:25.945Z,73.82
2017-12-25T10:14:53.451Z,73.75
2017-12-25T10:17:21.005Z,73.96
2017-12-25T10:19:48.527Z,73.71
2017-12-25T10:22:16.047Z,73.48
2017-12-25T10:24:43.553Z,73.89
2017-12-25T10:27:11.056Z,73.22
2017-12-25T10:29:38.592Z,72.87
2017-12-25T10:32:06.129Z,73.32
2017-12-25T10:34:33.638Z,73.60
2017-12-25T10:37:01.145Z,73.01
2017-12-25T10:39:28.692Z,73.63
2017-12-25T10:41:56.199Z,73.11
2017-12-25T10:44:23.720Z,73.40
2017-12-25T10:46:51.333Z,73.84
2017-12-25T10:49:18.839Z,73.49
2017-12-25T10:51:46.359Z,73.39
2017-12-25T10:54:13.891Z,73.91
2017-12-25T10:56:41.423Z,74.50
2017-12-25T10:59:08.937Z,74.10
2017-12-25T11:04:03.237Z,74.61
2017-12-25T11:06:30.748Z,74.23
2017-12-25T11:08:58.253Z,74.60
2017-12-25T11:11:25.756Z,74.74
2017-12-25T11:13:53.270Z,74.26
2017-12-25T11:16:20.790Z,74.39
2017-12-25T11:18:48.303Z,74.35
2017-12-25T11:21:15.818Z,74.65
2017-12-25T11:23:43.383Z,75.96
2017-12-25T11:26:10.940Z,75.13
2017-12-25T11:28:38.496Z,74.60
2017-12-25T11:31:06.049Z,74.72
2017-12-25T11:33:33.554Z,74.62
2017-12-25T11:36:01.168Z,74.30
2017-12-25T11:38:28.673Z,74.44
2017-12-25T11:40:56.198Z,74.74
2017-12-25T11:43:23.726Z,74.15
2017-12-25T11:45:51.247Z,74.66
2017-12-25T11:48:18.774Z,74.04
2017-12-25T11:50:46.286Z,74.26
2017-12-25T11:53:13.810Z,73.65
2017-12-25T11:55:41.328Z,74.12
2017-12-25T11:58:08.840Z,72.93
2017-12-25T12:00:36.357Z,72.98
2017-12-25T12:03:03.898Z,73.31
2017-12-25T12:05:31.412Z,72.53
2017-12-25T12:07:58.963Z,72.10
2017-12-25T12:10:26.476Z,71.05
2017-12-25T12:12:53.993Z,71.18
2017-12-25T12:15:21.510Z,70.89
2017-12-25T12:17:49.024Z,71.72
2017-12-25T12:20:16.525Z,70.95
2017-12-25T12:22:44.036Z,69.84
2017-12-25T12:25:11.545Z,69.26
2017-12-25T12:27:39.067Z,70.26
2017-12-25T12:30:06.595Z,70.15
2017-12-25T12:32:34.123Z,69.95
2017-12-25T12:35:01.649Z,70.86
2017-12-25T12:37:29.179Z,70.16
2017-12-25T12:39:56.689Z,70.42
2017-12-25T12:42:24.337Z,71.10
2017-12-25T12:44:51.963Z,70.56
2017-12-25T12:47:19.514Z,71.45
2017-12-25T12:49:47.100Z,72.16
2017-12-25T12:52:14.643Z,72.10
2017-12-25T12:54:42.153Z,72.95
2017-12-25T12:57:09.661Z,72.77
2017-12-25T12:59:37.184Z,72.50
2017-12-25T13:02:04.759Z,72.76
2017-12-25T13:04:32.444Z,72.88
2017-12-25T13:07:00.148Z,73.31
2017-12-25T13:09:27.824Z,73.47
2017-12-25T13:11:55.375Z,73.56
2017-12-25T13:14:22.920Z,73.70
2017-12-25T13:16:50.428Z,73.99
2017-12-25T13:19:17.933Z,73.87
2017-12-25T13:21:45.461Z,73.62
2017-12-25T13:24:13.031Z,73.89
2017-12-25T13:26:40.602Z,73.77
2017-12-25T13:29:08.319Z,73.30
2017-12-25T13:31:35.977Z,73.44
2017-12-25T13:34:05.109Z,73.46
2017-12-25T13:36:32.746Z,74.20
2017-12-25T13:39:00.304Z,74.44
2017-12-25T13:41:27.936Z,74.24
2017-12-25T13:43:55.513Z,74.23
2017-12-25T13:46:23.099Z,74.46
2017-12-25T13:48:50.651Z,74.05
2017-12-25T13:51:18.152Z,74.42
2017-12-25T13:53:45.648Z,74.32
2017-12-25T13:56:13.160Z,74.42
2017-12-25T13:58:40.937Z,74.54
2017-12-25T14:01:08.476Z,74.29
2017-12-25T14:03:36.077Z,74.00
2017-12-25T14:06:03.774Z,74.07
2017-12-25T14:08:31.307Z,74.09
2017-12-25T14:10:58.814Z,74.39
2017-12-25T14:13:26.322Z,74.02
2017-12-25T14:15:53.862Z,74.10
2017-12-25T14:18:21.441Z,74.66
2017-12-25T14:20:49.132Z,74.25
2017-12-25T14:23:16.701Z,74.39
2017-12-25T14:25:44.287Z,74.48
2017-12-25T14:28:11.838Z,74.99
2017-12-25T14:30:39.342Z,74.70
2017-12-25T14:33:06.921Z,75.04
2017-12-25T14:35:34.445Z,74.97
2017-12-25T14:38:02.072Z,75.14
2017-12-25T14:40:29.796Z,75.11
2017-12-25T14:42:57.532Z,74.83
2017-12-25T14:45:25.159Z,75.20
2017-12-25T14:47:52.711Z,75.35
2017-12-25T14:50:20.295Z,75.12
2017-12-25T14:52:47.806Z,75.00
2017-12-25T14:55:15.367Z,75.38
2017-12-25T14:57:42.901Z,75.15
2017-12-25T15:00:10.411Z,75.51
2017-12-25T15:02:38.012Z,74.53
2017-12-25T15:05:05.692Z,74.82
2017-12-25T15:07:33.332Z,74.28
2017-12-25T15:10:00.839Z,75.26
2017-12-25T15:12:28.417Z,74.95
2017-12-25T15:14:55.936Z,74.74
2017-12-25T15:17:23.445Z,75.09
2017-12-25T15:19:50.944Z,75.09
2017-12-25T15:22:18.468Z,75.77
2017-12-25T15:24:46.204Z,75.37
2017-12-25T15:27:13.745Z,75.21
2017-12-25T15:29:41.258Z,75.23
2017-12-25T15:32:08.769Z,75.15
2017-12-25T15:34:36.439Z,74.99
2017-12-25T15:37:04.113Z,74.83
2017-12-25T15:39:31.765Z,75.27
2017-12-25T15:41:59.328Z,75.40
2017-12-25T15:44:26.833Z,74.77
2017-12-25T15:46:54.341Z,74.95
2017-12-25T15:49:22.021Z,74.63
2017-12-25T15:51:49.564Z,75.13
2017-12-25T15:54:17.098Z,74.83
2017-12-25T15:56:44.609Z,74.93
2017-12-25T15:59:12.270Z,74.98
2017-12-25T16:01:39.792Z,75.08
2017-12-25T16:04:07.338Z,74.32
2017-12-25T16:06:34.862Z,74.72
2017-12-25T16:09:02.469Z,74.88
2017-12-25T16:11:29.992Z,74.74
2017-12-25T16:13:57.521Z,74.49
2017-12-25T16:16:25.021Z,74.96
2017-12-25T16:18:52.550Z,74.62
2017-12-25T16:21:20.093Z,74.87
2017-12-25T16:23:47.631Z,74.84
2017-12-25T16:26:15.196Z,74.67
2017-12-25T16:28:42.818Z,74.69
2017-12-25T16:33:37.126Z,74.38
2017-12-25T16:36:04.639Z,74.45
2017-12-25T16:38:32.140Z,74.58
2017-12-25T16:40:59.708Z,74.33
2017-12-25T16:43:27.339Z,74.83
2017-12-25T16:45:54.879Z,74.81
2017-12-25T16:48:22.418Z,74.58
2017-12-25T16:50:49.952Z,76.35
2017-12-25T16:53:17.557Z,74.73
2017-12-25T16:55:45.099Z,74.66
2017-12-25T16:58:12.781Z,74.59
2017-12-25T17:00:40.424Z,74.62
2017-12-25T17:03:07.994Z,74.95
2017-12-25T17:05:35.533Z,75.08
2017-12-25T17:08:03.043Z,74.26
2017-12-25T17:10:30.574Z,74.56
2017-12-25T17:12:58.104Z,74.91
2017-12-25T17:15:25.837Z,74.81
2017-12-25T17:17:53.525Z,74.29
2017-12-25T17:20:21.033Z,74.81
2017-12-25T17:22:48.541Z,74.21
2017-12-25T17:25:16.065Z,74.44
2017-12-25T17:27:43.591Z,74.78
2017-12-25T17:30:11.104Z,73.83
2017-12-25T17:32:38.808Z,74.41
2017-12-25T17:35:06.419Z,74.04
2017-12-25T17:37:33.979Z,73.68
2017-12-25T17:40:01.514Z,73.98
2017-12-25T17:42:29.030Z,73.55
2017-12-25T17:44:56.568Z,74.36
2017-12-25T17:47:24.149Z,74.22
2017-12-25T17:49:51.816Z,73.90
2017-12-25T17:52:19.393Z,73.74
2017-12-25T17:54:46.990Z,74.42
2017-12-25T17:57:14.541Z,73.63
2017-12-25T17:59:42.046Z,73.65
2017-12-25T18:02:09.563Z,73.59
2017-12-25T18:04:37.078Z,73.42
2017-12-25T18:07:04.801Z,73.54
2017-12-25T18:09:32.621Z,73.08
2017-12-25T18:12:00.282Z,73.57
2017-12-25T18:14:27.821Z,72.85
2017-12-25T18:16:55.412Z,73.31
2017-12-25T18:19:22.924Z,73.81
2017-12-25T18:21:50.517Z,72.99
2017-12-25T18:24:18.127Z,72.55
2017-12-25T18:26:45.625Z,73.31
2017-12-25T18:29:13.130Z,73.34
2017-12-25T18:31:40.685Z,73.62
2017-12-25T18:34:08.188Z,73.10
2017-12-25T18:36:35.755Z,73.20
2017-12-25T18:39:03.391Z,72.32
2017-12-25T18:41:31.063Z,72.72
2017-12-25T18:43:58.647Z,72.62
2017-12-25T18:46:26.190Z,72.17
2017-12-25T18:48:53.725Z,72.39
2017-12-25T18:51:21.236Z,72.30
2017-12-25T18:53:48.782Z,72.24
2017-12-25T18:56:16.449Z,72.42
2017-12-25T18:58:44.053Z,71.50
2017-12-25T19:01:11.761Z,71.77
2017-12-25T19:03:39.280Z,72.19
2017-12-25T19:06:06.810Z,72.07
2017-12-25T19:08:35.236Z,71.73
2017-12-25T19:11:02.858Z,71.23
2017-12-25T19:13:30.563Z,71.78
2017-12-25T19:15:58.240Z,71.42
2017-12-25T19:18:25.821Z,71.14
2017-12-25T19:20:53.329Z,71.63
2017-12-25T19:23:20.896Z,71.63
2017-12-25T19:25:48.515Z,71.26
2017-12-25T19:28:16.044Z,72.07
2017-12-25T19:30:43.646Z,72.30
2017-12-25T19:33:12.111Z,72.33
2017-12-25T19:35:39.620Z,72.46
2017-12-25T19:38:07.222Z,72.40
2017-12-25T19:40:34.796Z,71.97
2017-12-25T19:43:02.300Z,71.37
2017-12-25T19:45:29.918Z,72.07
2017-12-25T19:47:57.429Z,71.79
2017-12-25T19:50:24.961Z,72.42
2017-12-25T19:52:52.479Z,71.98
2017-12-25T19:55:20.057Z,72.03
2017-12-25T19:57:47.615Z,72.66
2017-12-25T20:00:15.137Z,72.11
2017-12-25T20:02:42.654Z,72.51
2017-12-25T20:05:10.170Z,72.78
2017-12-25T20:07:37.747Z,73.07
2017-12-25T20:10:05.257Z,72.64
2017-12-25T20:12:32.875Z,73.22
2017-12-25T20:15:00.398Z,73.78
2017-12-25T20:17:27.926Z,73.94
2017-12-25T20:19:55.559Z,73.49
2017-12-25T20:22:23.221Z,73.51
2017-12-25T20:24:51.318Z,74.10
2017-12-25T20:27:18.877Z,73.69
2017-12-25T20:29:46.504Z,73.78
2017-12-25T20:32:14.009Z,73.83
2017-12-25T20:34:41.509Z,74.16
2017-12-25T20:37:09.033Z,73.94
2017-12-25T20:39:36.551Z,74.01
2017-12-25T20:42:04.086Z,73.25
2017-12-25T20:44:31.590Z,73.41
2017-12-25T20:46:59.105Z,73.73
2017-12-25T20:49:26.606Z,73.58
2017-12-25T20:51:54.111Z,73.08
2017-12-25T20:54:21.648Z,72.77
2017-12-25T20:56:49.170Z,73.04
2017-12-25T20:59:16.683Z,73.24
2017-12-25T21:01:44.916Z,72.19
2017-12-25T21:04:12.425Z,72.76
2017-12-25T21:06:40.376Z,72.67
2017-12-25T21:09:07.886Z,72.92
2017-12-25T21:11:35.445Z,72.62
2017-12-25T21:14:02.988Z,72.88
2017-12-25T21:16:31.450Z,72.77
2017-12-25T21:18:58.964Z,72.59
2017-12-25T21:21:26.491Z,72.40
2017-12-25T21:23:54.493Z,73.17
2017-12-25T21:26:21.998Z,73.68
2017-12-25T21:28:49.513Z,74.29
2017-12-25T21:31:17.142Z,74.63
2017-12-25T21:33:44.662Z,74.86
2017-12-25T21:36:12.161Z,74.94
2017-12-25T21:38:39.667Z,74.95
2017-12-25T21:41:07.201Z,75.14
2017-12-25T21:43:34.705Z,75.20
2017-12-25T21:46:02.284Z,75.64
2017-12-25T21:48:29.789Z,75.69
2017-12-25T21:50:57.291Z,76.07
2017-12-25T21:53:24.797Z,76.46
2017-12-25T21:55:52.302Z,76.67
2017-12-25T21:58:19.864Z,76.60
2017-12-25T22:00:47.516Z,76.89
2017-12-25T22:03:15.073Z,76.54
2017-12-25T22:05:42.576Z,76.94
2017-12-25T22:08:10.269Z,77.26
2017-12-25T22:10:37.777Z,77.61
2017-12-25T22:13:05.281Z,78.20
2017-12-25T22:15:32.793Z,78.09
2017-12-25T22:18:00.369Z,78.61
2017-12-25T22:20:28.032Z,78.50
2017-12-25T22:22:55.586Z,78.20
2017-12-25T22:25:23.092Z,78.55
2017-12-25T22:27:50.606Z,78.83
2017-12-25T22:30:18.178Z,79.15
2017-12-25T22:32:45.705Z,79.58
2017-12-25T22:35:13.357Z,79.23
2017-12-25T22:37:40.874Z,79.28
2017-12-25T22:40:08.521Z,79.44
2017-12-25T22:42:36.160Z,79.76
2017-12-25T22:45:03.656Z,79.58
2017-12-25T22:47:31.399Z,81.23
2017-12-25T22:49:58.932Z,80.12
2017-12-25T22:52:26.465Z,80.03
2017-12-25T22:54:54.006Z,80.08
2017-12-25T22:57:21.636Z,80.08
2017-12-25T22:59:49.612Z,80.59
2017-12-25T23:02:17.173Z,80.38
2017-12-25T23:04:44.697Z,80.62
2017-12-25T23:07:12.294Z,81.21
2017-12-25T23:09:39.917Z,81.10
2017-12-25T23:12:07.513Z,81.10
2017-12-25T23:14:35.037Z,81.06
2017-12-25T23:17:02.628Z,81.39
2017-12-25T23:19:30.297Z,81.41
2017-12-25T23:21:58.266Z,81.54
2017-12-25T23:24:25.773Z,81.64
2017-12-25T23:26:53.510Z,81.58
2017-12-25T23:29:21.016Z,81.80
2017-12-25T23:31:48.533Z,81.68
2017-12-25T23:34:16.154Z,81.88
2017-12-25T23:36:43.770Z,82.04
2017-12-25T23:39:11.469Z,82.06
2017-12-25T23:41:38.977Z,82.80
2017-12-25T23:44:06.498Z,82.54
2017-12-25T23:46:34.022Z,82.42
2017-12-25T23:49:01.583Z,82.18
2017-12-25T23:51:29.096Z,82.56
2017-12-25T23:53:56.643Z,82.62
2017-12-25T23:56:24.192Z,82.26
2017-12-25T23:58:51.695Z,83.03
